sensor_id;sensor_type;location;lat;lon;timestamp;P1;durP1;ratioP1;P2;durP2;ratioP2
21122;SDS011;10719;48.130;11.630;2022-12-20T00:00:26;5.10;;;2.50;;
21122;SDS011;10719;48.130;11.630;2022-12-20T00:02:51;4.33;;;2.03;;
21122;SDS011;10719;48.130;11.630;2022-12-20T00:05:17;7.10;;;2.40;;
21122;SDS011;10719;48.130;11.630;2022-12-20T00:07:42;6.20;;;2.13;;
21122;SDS011;10719;48.130;11.630;2022-12-20T00:10:08;3.13;;;1.43;;
21122;SDS011;10719;48.130;11.630;2022-12-20T00:12:34;3.67;;;1.33;;
21122;SDS011;10719;48.130;11.630;2022-12-20T00:14:59;2.10;;;1.03;;
21122;SDS011;10719;48.130;11.630;2022-12-20T00:17:25;5.00;;;2.13;;
21122;SDS011;10719;48.130;11.630;2022-12-20T00:19:51;5.70;;;1.93;;
21122;SDS011;10719;48.130;11.630;2022-12-20T00:22:16;6.50;;;3.13;;
21122;SDS011;10719;48.130;11.630;2022-12-20T00:24:42;2.40;;;0.90;;
21122;SDS011;10719;48.130;11.630;2022-12-20T00:27:07;4.13;;;2.03;;
21122;SDS011;10719;48.130;11.630;2022-12-20T00:29:33;2.53;;;1.67;;
21122;SDS011;10719;48.130;11.630;2022-12-20T00:31:59;1.60;;;0.90;;
21122;SDS011;10719;48.130;11.630;2022-12-20T00:34:24;3.57;;;1.53;;
21122;SDS011;10719;48.130;11.630;2022-12-20T00:36:50;4.33;;;1.87;;
21122;SDS011;10719;48.130;11.630;2022-12-20T00:39:15;2.67;;;1.97;;
21122;SDS011;10719;48.130;11.630;2022-12-20T00:41:41;2.33;;;1.00;;
21122;SDS011;10719;48.130;11.630;2022-12-20T00:44:07;4.77;;;1.67;;
21122;SDS011;10719;48.130;11.630;2022-12-20T00:46:33;3.80;;;1.40;;
21122;SDS011;10719;48.130;11.630;2022-12-20T00:48:59;3.30;;;1.23;;
21122;SDS011;10719;48.130;11.630;2022-12-20T00:51:26;2.57;;;1.40;;
21122;SDS011;10719;48.130;11.630;2022-12-20T00:53:53;4.27;;;1.43;;
21122;SDS011;10719;48.130;11.630;2022-12-20T00:56:19;4.63;;;1.63;;
21122;SDS011;10719;48.130;11.630;2022-12-20T00:58:45;1.27;;;1.03;;
21122;SDS011;10719;48.130;11.630;2022-12-20T01:01:19;3.00;;;1.10;;
21122;SDS011;10719;48.130;11.630;2022-12-20T01:03:52;1.40;;;0.77;;
21122;SDS011;10719;48.130;11.630;2022-12-20T01:06:19;1.33;;;0.93;;
21122;SDS011;10719;48.130;11.630;2022-12-20T01:08:45;4.37;;;1.97;;
21122;SDS011;10719;48.130;11.630;2022-12-20T01:11:16;2.87;;;1.20;;
21122;SDS011;10719;48.130;11.630;2022-12-20T01:13:43;3.13;;;1.00;;
21122;SDS011;10719;48.130;11.630;2022-12-20T01:16:12;4.23;;;1.13;;
21122;SDS011;10719;48.130;11.630;2022-12-20T01:18:43;1.07;;;0.90;;
21122;SDS011;10719;48.130;11.630;2022-12-20T01:21:10;1.87;;;0.93;;
21122;SDS011;10719;48.130;11.630;2022-12-20T01:23:38;2.30;;;0.93;;
21122;SDS011;10719;48.130;11.630;2022-12-20T01:26:05;2.93;;;1.23;;
21122;SDS011;10719;48.130;11.630;2022-12-20T01:28:36;0.63;;;0.43;;
21122;SDS011;10719;48.130;11.630;2022-12-20T01:31:10;1.27;;;0.63;;
21122;SDS011;10719;48.130;11.630;2022-12-20T01:33:38;1.07;;;0.57;;
21122;SDS011;10719;48.130;11.630;2022-12-20T01:36:05;1.47;;;1.00;;
21122;SDS011;10719;48.130;11.630;2022-12-20T01:38:33;3.70;;;0.87;;
21122;SDS011;10719;48.130;11.630;2022-12-20T01:40:59;0.83;;;0.53;;
21122;SDS011;10719;48.130;11.630;2022-12-20T01:43:25;1.23;;;0.60;;
21122;SDS011;10719;48.130;11.630;2022-12-20T01:46:11;3.17;;;0.97;;
21122;SDS011;10719;48.130;11.630;2022-12-20T01:48:37;1.90;;;0.93;;
21122;SDS011;10719;48.130;11.630;2022-12-20T01:51:04;5.80;;;1.27;;
21122;SDS011;10719;48.130;11.630;2022-12-20T01:53:30;1.27;;;0.60;;
21122;SDS011;10719;48.130;11.630;2022-12-20T01:55:56;3.23;;;1.23;;
21122;SDS011;10719;48.130;11.630;2022-12-20T01:58:26;3.40;;;0.87;;
21122;SDS011;10719;48.130;11.630;2022-12-20T02:00:52;0.90;;;0.67;;
21122;SDS011;10719;48.130;11.630;2022-12-20T02:03:18;2.77;;;0.90;;
21122;SDS011;10719;48.130;11.630;2022-12-20T02:05:44;2.20;;;0.90;;
21122;SDS011;10719;48.130;11.630;2022-12-20T02:08:11;0.70;;;0.57;;
21122;SDS011;10719;48.130;11.630;2022-12-20T02:13:24;0.87;;;0.47;;
21122;SDS011;10719;48.130;11.630;2022-12-20T02:15:55;1.13;;;0.65;;
21122;SDS011;10719;48.130;11.630;2022-12-20T02:18:28;1.63;;;0.77;;
21122;SDS011;10719;48.130;11.630;2022-12-20T02:32:06;1.60;;;0.80;;
21122;SDS011;10719;48.130;11.630;2022-12-20T02:34:38;0.60;;;0.60;;
21122;SDS011;10719;48.130;11.630;2022-12-20T02:37:05;4.43;;;0.53;;
21122;SDS011;10719;48.130;11.630;2022-12-20T02:39:31;4.33;;;1.33;;
21122;SDS011;10719;48.130;11.630;2022-12-20T02:42:07;0.97;;;0.80;;
21122;SDS011;10719;48.130;11.630;2022-12-20T02:44:36;1.37;;;0.57;;
21122;SDS011;10719;48.130;11.630;2022-12-20T02:47:26;0.90;;;0.70;;
21122;SDS011;10719;48.130;11.630;2022-12-20T02:50:15;0.83;;;0.57;;
21122;SDS011;10719;48.130;11.630;2022-12-20T02:52:45;1.33;;;0.70;;
21122;SDS011;10719;48.130;11.630;2022-12-20T02:55:10;0.90;;;0.57;;
21122;SDS011;10719;48.130;11.630;2022-12-20T03:00:23;1.40;;;0.70;;
21122;SDS011;10719;48.130;11.630;2022-12-20T03:02:49;0.80;;;0.63;;
21122;SDS011;10719;48.130;11.630;2022-12-20T03:05:35;2.67;;;0.97;;
21122;SDS011;10719;48.130;11.630;2022-12-20T03:08:08;1.57;;;0.93;;
21122;SDS011;10719;48.130;11.630;2022-12-20T03:10:34;2.30;;;1.10;;
21122;SDS011;10719;48.130;11.630;2022-12-20T03:12:59;0.47;;;0.30;;
21122;SDS011;10719;48.130;11.630;2022-12-20T03:15:25;2.30;;;0.90;;
21122;SDS011;10719;48.130;11.630;2022-12-20T03:17:50;2.60;;;1.20;;
21122;SDS011;10719;48.130;11.630;2022-12-20T03:20:16;0.87;;;0.63;;
21122;SDS011;10719;48.130;11.630;2022-12-20T03:22:41;1.80;;;0.63;;
21122;SDS011;10719;48.130;11.630;2022-12-20T03:25:07;0.67;;;0.50;;
21122;SDS011;10719;48.130;11.630;2022-12-20T03:27:33;1.57;;;0.93;;
21122;SDS011;10719;48.130;11.630;2022-12-20T03:29:58;1.73;;;0.80;;
21122;SDS011;10719;48.130;11.630;2022-12-20T03:32:24;1.50;;;0.63;;
21122;SDS011;10719;48.130;11.630;2022-12-20T03:34:50;1.03;;;0.53;;
21122;SDS011;10719;48.130;11.630;2022-12-20T03:37:15;1.17;;;0.60;;
21122;SDS011;10719;48.130;11.630;2022-12-20T03:39:41;2.23;;;1.00;;
21122;SDS011;10719;48.130;11.630;2022-12-20T03:42:07;1.17;;;0.90;;
21122;SDS011;10719;48.130;11.630;2022-12-20T03:44:32;1.17;;;0.60;;
21122;SDS011;10719;48.130;11.630;2022-12-20T03:46:58;1.60;;;0.70;;
21122;SDS011;10719;48.130;11.630;2022-12-20T03:49:23;0.83;;;0.70;;
21122;SDS011;10719;48.130;11.630;2022-12-20T03:51:49;0.63;;;0.63;;
21122;SDS011;10719;48.130;11.630;2022-12-20T03:54:15;1.90;;;0.90;;
21122;SDS011;10719;48.130;11.630;2022-12-20T03:56:40;1.70;;;0.90;;
21122;SDS011;10719;48.130;11.630;2022-12-20T03:59:06;0.67;;;0.43;;
21122;SDS011;10719;48.130;11.630;2022-12-20T04:01:32;1.50;;;0.70;;
21122;SDS011;10719;48.130;11.630;2022-12-20T04:04:00;2.37;;;1.23;;
21122;SDS011;10719;48.130;11.630;2022-12-20T04:06:27;4.63;;;0.90;;
21122;SDS011;10719;48.130;11.630;2022-12-20T04:08:53;1.43;;;0.80;;
21122;SDS011;10719;48.130;11.630;2022-12-20T04:11:18;1.83;;;0.90;;
21122;SDS011;10719;48.130;11.630;2022-12-20T04:13:49;0.60;;;0.43;;
21122;SDS011;10719;48.130;11.630;2022-12-20T04:16:17;1.50;;;0.63;;
21122;SDS011;10719;48.130;11.630;2022-12-20T04:18:45;6.13;;;0.50;;
21122;SDS011;10719;48.130;11.630;2022-12-20T04:21:10;1.73;;;0.60;;
21122;SDS011;10719;48.130;11.630;2022-12-20T04:23:37;0.93;;;0.77;;
21122;SDS011;10719;48.130;11.630;2022-12-20T04:26:04;1.50;;;0.70;;
21122;SDS011;10719;48.130;11.630;2022-12-20T04:28:31;1.17;;;0.60;;
21122;SDS011;10719;48.130;11.630;2022-12-20T04:30:57;0.67;;;0.50;;
21122;SDS011;10719;48.130;11.630;2022-12-20T04:33:23;0.97;;;0.47;;
21122;SDS011;10719;48.130;11.630;2022-12-20T04:35:50;1.93;;;0.80;;
21122;SDS011;10719;48.130;11.630;2022-12-20T04:38:16;1.50;;;0.53;;
21122;SDS011;10719;48.130;11.630;2022-12-20T04:40:42;0.90;;;0.67;;
21122;SDS011;10719;48.130;11.630;2022-12-20T04:43:08;0.83;;;0.50;;
21122;SDS011;10719;48.130;11.630;2022-12-20T04:45:34;1.17;;;0.80;;
21122;SDS011;10719;48.130;11.630;2022-12-20T04:47:59;0.40;;;0.40;;
21122;SDS011;10719;48.130;11.630;2022-12-20T04:50:25;1.07;;;0.67;;
21122;SDS011;10719;48.130;11.630;2022-12-20T04:52:51;0.87;;;0.77;;
21122;SDS011;10719;48.130;11.630;2022-12-20T04:55:38;0.77;;;0.63;;
21122;SDS011;10719;48.130;11.630;2022-12-20T04:58:04;1.53;;;0.83;;
21122;SDS011;10719;48.130;11.630;2022-12-20T05:00:30;2.35;;;0.90;;
21122;SDS011;10719;48.130;11.630;2022-12-20T05:02:56;2.40;;;1.00;;
21122;SDS011;10719;48.130;11.630;2022-12-20T05:05:22;1.20;;;0.53;;
21122;SDS011;10719;48.130;11.630;2022-12-20T05:07:47;1.23;;;0.40;;
21122;SDS011;10719;48.130;11.630;2022-12-20T05:10:13;0.83;;;0.63;;
21122;SDS011;10719;48.130;11.630;2022-12-20T05:12:39;1.23;;;0.70;;
21122;SDS011;10719;48.130;11.630;2022-12-20T05:15:04;3.87;;;0.50;;
21122;SDS011;10719;48.130;11.630;2022-12-20T05:17:31;1.43;;;0.83;;
21122;SDS011;10719;48.130;11.630;2022-12-20T05:19:57;1.00;;;0.63;;
21122;SDS011;10719;48.130;11.630;2022-12-20T05:22:23;2.83;;;1.00;;
21122;SDS011;10719;48.130;11.630;2022-12-20T05:25:08;6.83;;;1.03;;
21122;SDS011;10719;48.130;11.630;2022-12-20T05:27:53;0.90;;;0.57;;
21122;SDS011;10719;48.130;11.630;2022-12-20T05:30:18;1.90;;;0.60;;
21122;SDS011;10719;48.130;11.630;2022-12-20T05:32:44;1.03;;;0.80;;
21122;SDS011;10719;48.130;11.630;2022-12-20T05:35:09;1.00;;;0.57;;
21122;SDS011;10719;48.130;11.630;2022-12-20T05:37:36;0.70;;;0.60;;
21122;SDS011;10719;48.130;11.630;2022-12-20T05:40:01;4.00;;;1.10;;
21122;SDS011;10719;48.130;11.630;2022-12-20T05:42:28;1.73;;;0.83;;
21122;SDS011;10719;48.130;11.630;2022-12-20T05:44:54;0.70;;;0.60;;
21122;SDS011;10719;48.130;11.630;2022-12-20T05:47:19;0.70;;;0.70;;
21122;SDS011;10719;48.130;11.630;2022-12-20T05:49:45;1.83;;;0.80;;
21122;SDS011;10719;48.130;11.630;2022-12-20T05:52:11;1.03;;;0.60;;
21122;SDS011;10719;48.130;11.630;2022-12-20T05:54:36;2.30;;;0.70;;
21122;SDS011;10719;48.130;11.630;2022-12-20T05:57:02;2.20;;;0.93;;
21122;SDS011;10719;48.130;11.630;2022-12-20T05:59:28;0.50;;;0.30;;
21122;SDS011;10719;48.130;11.630;2022-12-20T06:01:53;0.67;;;0.43;;
21122;SDS011;10719;48.130;11.630;2022-12-20T06:04:19;1.80;;;0.93;;
21122;SDS011;10719;48.130;11.630;2022-12-20T06:06:45;0.43;;;0.40;;
21122;SDS011;10719;48.130;11.630;2022-12-20T06:09:10;0.57;;;0.57;;
21122;SDS011;10719;48.130;11.630;2022-12-20T06:11:36;8.50;;;1.07;;
21122;SDS011;10719;48.130;11.630;2022-12-20T06:14:02;2.27;;;0.87;;
21122;SDS011;10719;48.130;11.630;2022-12-20T06:16:28;0.60;;;0.53;;
21122;SDS011;10719;48.130;11.630;2022-12-20T06:18:54;0.40;;;0.40;;
21122;SDS011;10719;48.130;11.630;2022-12-20T06:21:19;4.20;;;1.00;;
21122;SDS011;10719;48.130;11.630;2022-12-20T06:23:45;0.63;;;0.53;;
21122;SDS011;10719;48.130;11.630;2022-12-20T06:26:11;2.13;;;0.93;;
21122;SDS011;10719;48.130;11.630;2022-12-20T06:28:37;0.27;;;0.27;;
21122;SDS011;10719;48.130;11.630;2022-12-20T06:31:09;2.13;;;1.10;;
21122;SDS011;10719;48.130;11.630;2022-12-20T06:33:35;1.37;;;0.77;;
21122;SDS011;10719;48.130;11.630;2022-12-20T06:36:01;1.33;;;0.80;;
21122;SDS011;10719;48.130;11.630;2022-12-20T06:38:27;2.97;;;1.00;;
21122;SDS011;10719;48.130;11.630;2022-12-20T06:40:52;2.00;;;0.83;;
21122;SDS011;10719;48.130;11.630;2022-12-20T06:43:18;0.33;;;0.33;;
21122;SDS011;10719;48.130;11.630;2022-12-20T06:45:44;0.90;;;0.43;;
21122;SDS011;10719;48.130;11.630;2022-12-20T06:48:09;1.23;;;0.80;;
21122;SDS011;10719;48.130;11.630;2022-12-20T06:50:36;1.27;;;0.80;;
21122;SDS011;10719;48.130;11.630;2022-12-20T06:53:02;1.10;;;0.67;;
21122;SDS011;10719;48.130;11.630;2022-12-20T06:55:28;0.90;;;0.77;;
21122;SDS011;10719;48.130;11.630;2022-12-20T06:57:54;0.60;;;0.60;;
21122;SDS011;10719;48.130;11.630;2022-12-20T07:00:20;0.80;;;0.60;;
21122;SDS011;10719;48.130;11.630;2022-12-20T07:02:46;1.17;;;0.50;;
21122;SDS011;10719;48.130;11.630;2022-12-20T07:05:12;0.83;;;0.40;;
21122;SDS011;10719;48.130;11.630;2022-12-20T07:07:37;2.30;;;1.33;;
21122;SDS011;10719;48.130;11.630;2022-12-20T07:10:03;0.63;;;0.40;;
21122;SDS011;10719;48.130;11.630;2022-12-20T07:12:29;1.43;;;0.77;;
21122;SDS011;10719;48.130;11.630;2022-12-20T07:14:55;0.30;;;0.30;;
21122;SDS011;10719;48.130;11.630;2022-12-20T07:17:21;0.70;;;0.47;;
21122;SDS011;10719;48.130;11.630;2022-12-20T07:19:47;1.53;;;0.90;;
21122;SDS011;10719;48.130;11.630;2022-12-20T07:22:12;0.57;;;0.57;;
21122;SDS011;10719;48.130;11.630;2022-12-20T07:24:38;1.43;;;0.90;;
21122;SDS011;10719;48.130;11.630;2022-12-20T07:27:03;1.77;;;1.03;;
21122;SDS011;10719;48.130;11.630;2022-12-20T07:29:29;1.83;;;1.05;;
21122;SDS011;10719;48.130;11.630;2022-12-20T07:31:54;0.93;;;0.80;;
21122;SDS011;10719;48.130;11.630;2022-12-20T07:34:20;0.83;;;0.60;;
21122;SDS011;10719;48.130;11.630;2022-12-20T07:36:46;1.07;;;0.60;;
21122;SDS011;10719;48.130;11.630;2022-12-20T07:39:12;2.67;;;1.03;;
21122;SDS011;10719;48.130;11.630;2022-12-20T07:41:38;1.10;;;0.50;;
21122;SDS011;10719;48.130;11.630;2022-12-20T07:44:04;1.60;;;0.87;;
21122;SDS011;10719;48.130;11.630;2022-12-20T07:46:30;2.00;;;0.93;;
21122;SDS011;10719;48.130;11.630;2022-12-20T07:48:56;2.30;;;0.93;;
21122;SDS011;10719;48.130;11.630;2022-12-20T07:51:26;1.27;;;0.70;;
21122;SDS011;10719;48.130;11.630;2022-12-20T07:53:58;3.23;;;1.40;;
21122;SDS011;10719;48.130;11.630;2022-12-20T07:56:35;2.38;;;1.15;;
21122;SDS011;10719;48.130;11.630;2022-12-20T07:59:04;2.92;;;1.35;;
21122;SDS011;10719;48.130;11.630;2022-12-20T08:01:30;2.03;;;0.65;;
21122;SDS011;10719;48.130;11.630;2022-12-20T08:04:01;1.45;;;1.17;;
21122;SDS011;10719;48.130;11.630;2022-12-20T08:06:30;0.40;;;0.40;;
21122;SDS011;10719;48.130;11.630;2022-12-20T08:08:58;0.98;;;0.63;;
21122;SDS011;10719;48.130;11.630;2022-12-20T08:11:26;1.17;;;0.57;;
21122;SDS011;10719;48.130;11.630;2022-12-20T08:13:54;3.13;;;1.20;;
21122;SDS011;10719;48.130;11.630;2022-12-20T08:16:19;1.67;;;0.80;;
21122;SDS011;10719;48.130;11.630;2022-12-20T08:18:45;1.90;;;0.70;;
21122;SDS011;10719;48.130;11.630;2022-12-20T08:21:11;4.15;;;1.00;;
21122;SDS011;10719;48.130;11.630;2022-12-20T08:23:38;1.48;;;0.70;;
21122;SDS011;10719;48.130;11.630;2022-12-20T08:26:04;3.38;;;0.93;;
21122;SDS011;10719;48.130;11.630;2022-12-20T08:28:30;1.25;;;0.82;;
21122;SDS011;10719;48.130;11.630;2022-12-20T08:30:59;1.20;;;0.77;;
21122;SDS011;10719;48.130;11.630;2022-12-20T08:33:29;1.60;;;0.75;;
21122;SDS011;10719;48.130;11.630;2022-12-20T08:35:56;3.33;;;1.20;;
21122;SDS011;10719;48.130;11.630;2022-12-20T08:38:24;1.50;;;0.88;;
21122;SDS011;10719;48.130;11.630;2022-12-20T08:40:50;2.72;;;0.85;;
21122;SDS011;10719;48.130;11.630;2022-12-20T08:43:16;3.58;;;1.27;;
21122;SDS011;10719;48.130;11.630;2022-12-20T08:45:41;3.03;;;1.20;;
21122;SDS011;10719;48.130;11.630;2022-12-20T08:48:07;2.35;;;1.45;;
21122;SDS011;10719;48.130;11.630;2022-12-20T08:50:33;2.08;;;0.90;;
21122;SDS011;10719;48.130;11.630;2022-12-20T08:52:58;1.92;;;1.00;;
21122;SDS011;10719;48.130;11.630;2022-12-20T08:55:24;5.90;;;1.45;;
21122;SDS011;10719;48.130;11.630;2022-12-20T08:57:49;4.78;;;1.15;;
21122;SDS011;10719;48.130;11.630;2022-12-20T09:00:15;3.83;;;1.38;;
21122;SDS011;10719;48.130;11.630;2022-12-20T09:02:41;3.70;;;1.70;;
21122;SDS011;10719;48.130;11.630;2022-12-20T09:05:07;2.15;;;0.80;;
21122;SDS011;10719;48.130;11.630;2022-12-20T09:07:33;8.48;;;2.22;;
21122;SDS011;10719;48.130;11.630;2022-12-20T09:09:58;2.35;;;1.13;;
21122;SDS011;10719;48.130;11.630;2022-12-20T09:12:24;3.60;;;1.48;;
21122;SDS011;10719;48.130;11.630;2022-12-20T09:14:49;4.40;;;1.83;;
21122;SDS011;10719;48.130;11.630;2022-12-20T09:17:15;5.15;;;1.92;;
21122;SDS011;10719;48.130;11.630;2022-12-20T09:19:40;4.57;;;1.60;;
21122;SDS011;10719;48.130;11.630;2022-12-20T09:22:06;3.25;;;1.27;;
21122;SDS011;10719;48.130;11.630;2022-12-20T09:24:32;1.92;;;1.30;;
21122;SDS011;10719;48.130;11.630;2022-12-20T09:26:58;3.90;;;1.98;;
21122;SDS011;10719;48.130;11.630;2022-12-20T09:29:23;3.63;;;1.60;;
21122;SDS011;10719;48.130;11.630;2022-12-20T09:31:49;2.83;;;1.80;;
21122;SDS011;10719;48.130;11.630;2022-12-20T09:34:15;7.38;;;2.13;;
21122;SDS011;10719;48.130;11.630;2022-12-20T09:36:40;6.35;;;2.72;;
21122;SDS011;10719;48.130;11.630;2022-12-20T09:39:06;5.13;;;2.22;;
21122;SDS011;10719;48.130;11.630;2022-12-20T09:41:34;5.35;;;1.90;;
21122;SDS011;10719;48.130;11.630;2022-12-20T09:44:13;7.22;;;2.13;;
21122;SDS011;10719;48.130;11.630;2022-12-20T09:46:43;6.25;;;2.05;;
21122;SDS011;10719;48.130;11.630;2022-12-20T09:49:16;5.25;;;2.15;;
21122;SDS011;10719;48.130;11.630;2022-12-20T10:00:49;7.18;;;2.40;;
21122;SDS011;10719;48.130;11.630;2022-12-20T10:03:19;6.25;;;2.65;;
21122;SDS011;10719;48.130;11.630;2022-12-20T10:16:57;8.38;;;2.58;;
21122;SDS011;10719;48.130;11.630;2022-12-20T10:19:49;10.80;;;4.32;;
21122;SDS011;10719;48.130;11.630;2022-12-20T10:25:18;15.32;;;3.40;;
21122;SDS011;10719;48.130;11.630;2022-12-20T10:27:47;10.32;;;3.22;;
21122;SDS011;10719;48.130;11.630;2022-12-20T10:30:16;8.35;;;3.70;;
21122;SDS011;10719;48.130;11.630;2022-12-20T10:32:45;10.13;;;3.67;;
21122;SDS011;10719;48.130;11.630;2022-12-20T10:40:47;7.60;;;2.70;;
21122;SDS011;10719;48.130;11.630;2022-12-20T10:43:23;7.15;;;2.70;;
21122;SDS011;10719;48.130;11.630;2022-12-20T10:45:57;5.80;;;2.65;;
21122;SDS011;10719;48.130;11.630;2022-12-20T10:51:12;6.38;;;2.67;;
21122;SDS011;10719;48.130;11.630;2022-12-20T10:53:49;9.57;;;2.22;;
21122;SDS011;10719;48.130;11.630;2022-12-20T10:56:18;2.38;;;1.48;;
21122;SDS011;10719;48.130;11.630;2022-12-20T10:59:01;4.20;;;1.92;;
21122;SDS011;10719;48.130;11.630;2022-12-20T11:01:47;7.88;;;2.03;;
21122;SDS011;10719;48.130;11.630;2022-12-20T11:04:35;6.15;;;2.60;;
21122;SDS011;10719;48.130;11.630;2022-12-20T11:07:01;4.78;;;1.90;;
21122;SDS011;10719;48.130;11.630;2022-12-20T11:09:30;4.50;;;1.55;;
21122;SDS011;10719;48.130;11.630;2022-12-20T11:14:40;4.68;;;1.55;;
21122;SDS011;10719;48.130;11.630;2022-12-20T11:22:55;1.98;;;1.23;;
21122;SDS011;10719;48.130;11.630;2022-12-20T11:36:33;4.65;;;1.80;;
21122;SDS011;10719;48.130;11.630;2022-12-20T11:39:28;4.07;;;1.73;;
21122;SDS011;10719;48.130;11.630;2022-12-20T11:53:35;4.20;;;2.10;;
21122;SDS011;10719;48.130;11.630;2022-12-20T11:56:33;6.45;;;2.20;;
21122;SDS011;10719;48.130;11.630;2022-12-20T11:59:34;6.35;;;2.78;;
21122;SDS011;10719;48.130;11.630;2022-12-20T12:02:09;6.60;;;2.58;;
21122;SDS011;10719;48.130;11.630;2022-12-20T12:04:52;5.72;;;2.33;;
21122;SDS011;10719;48.130;11.630;2022-12-20T12:07:22;5.10;;;2.50;;
21122;SDS011;10719;48.130;11.630;2022-12-20T12:10:18;2.40;;;1.70;;
21122;SDS011;10719;48.130;11.630;2022-12-20T12:13:02;5.40;;;2.30;;
21122;SDS011;10719;48.130;11.630;2022-12-20T12:18:22;5.40;;;2.30;;
21122;SDS011;10719;48.130;11.630;2022-12-20T12:20:59;6.68;;;2.42;;
21122;SDS011;10719;48.130;11.630;2022-12-20T12:23:32;4.05;;;1.63;;
21122;SDS011;10719;48.130;11.630;2022-12-20T12:26:04;15.07;;;2.85;;
21122;SDS011;10719;48.130;11.630;2022-12-20T12:28:36;6.22;;;1.98;;
21122;SDS011;10719;48.130;11.630;2022-12-20T12:31:35;8.45;;;2.67;;
21122;SDS011;10719;48.130;11.630;2022-12-20T12:34:00;7.28;;;2.53;;
21122;SDS011;10719;48.130;11.630;2022-12-20T12:45:02;6.63;;;2.97;;
21122;SDS011;10719;48.130;11.630;2022-12-20T12:47:49;6.40;;;2.75;;
21122;SDS011;10719;48.130;11.630;2022-12-20T12:50:26;8.02;;;2.85;;
21122;SDS011;10719;48.130;11.630;2022-12-20T12:52:56;6.78;;;2.60;;
21122;SDS011;10719;48.130;11.630;2022-12-20T12:55:47;4.97;;;2.15;;
21122;SDS011;10719;48.130;11.630;2022-12-20T13:00:59;6.63;;;2.92;;
21122;SDS011;10719;48.130;11.630;2022-12-20T13:11:52;7.93;;;2.97;;
21122;SDS011;10719;48.130;11.630;2022-12-20T13:16:45;7.53;;;2.88;;
21122;SDS011;10719;48.130;11.630;2022-12-20T13:36:00;4.82;;;2.50;;
21122;SDS011;10719;48.130;11.630;2022-12-20T13:49:44;9.43;;;3.08;;
21122;SDS011;10719;48.130;11.630;2022-12-20T13:54:39;4.05;;;1.88;;
21122;SDS011;10719;48.130;11.630;2022-12-20T13:57:17;6.25;;;2.53;;
21122;SDS011;10719;48.130;11.630;2022-12-20T13:59:49;4.40;;;2.30;;
21122;SDS011;10719;48.130;11.630;2022-12-20T14:02:22;4.55;;;2.10;;
21122;SDS011;10719;48.130;11.630;2022-12-20T14:04:58;7.15;;;2.65;;
21122;SDS011;10719;48.130;11.630;2022-12-20T14:07:26;6.75;;;2.33;;
21122;SDS011;10719;48.130;11.630;2022-12-20T14:09:54;6.28;;;2.20;;
21122;SDS011;10719;48.130;11.630;2022-12-20T14:12:24;3.20;;;1.88;;
21122;SDS011;10719;48.130;11.630;2022-12-20T14:14:51;5.13;;;2.30;;
21122;SDS011;10719;48.130;11.630;2022-12-20T14:17:26;7.32;;;2.63;;
21122;SDS011;10719;48.130;11.630;2022-12-20T14:25:26;4.85;;;1.90;;
21122;SDS011;10719;48.130;11.630;2022-12-20T14:27:54;2.92;;;1.33;;
21122;SDS011;10719;48.130;11.630;2022-12-20T14:31:03;3.17;;;1.45;;
21122;SDS011;10719;48.130;11.630;2022-12-20T14:33:19;4.60;;;2.10;;
21122;SDS011;10719;48.130;11.630;2022-12-20T14:35:48;4.45;;;2.05;;
21122;SDS011;10719;48.130;11.630;2022-12-20T14:38:23;4.32;;;1.60;;
21122;SDS011;10719;48.130;11.630;2022-12-20T14:40:52;11.52;;;3.08;;
21122;SDS011;10719;48.130;11.630;2022-12-20T14:43:32;6.13;;;2.45;;
21122;SDS011;10719;48.130;11.630;2022-12-20T14:46:18;5.60;;;2.13;;
21122;SDS011;10719;48.130;11.630;2022-12-20T14:48:46;5.93;;;2.00;;
21122;SDS011;10719;48.130;11.630;2022-12-20T14:51:12;7.35;;;2.50;;
21122;SDS011;10719;48.130;11.630;2022-12-20T14:53:45;4.97;;;2.25;;
21122;SDS011;10719;48.130;11.630;2022-12-20T14:56:14;7.05;;;2.95;;
21122;SDS011;10719;48.130;11.630;2022-12-20T14:58:43;8.00;;;2.13;;
21122;SDS011;10719;48.130;11.630;2022-12-20T15:03:57;4.68;;;2.13;;
21122;SDS011;10719;48.130;11.630;2022-12-20T15:06:38;5.68;;;2.55;;
21122;SDS011;10719;48.130;11.630;2022-12-20T15:09:07;4.97;;;2.35;;
21122;SDS011;10719;48.130;11.630;2022-12-20T15:11:33;8.38;;;2.10;;
21122;SDS011;10719;48.130;11.630;2022-12-20T15:14:00;8.45;;;2.28;;
21122;SDS011;10719;48.130;11.630;2022-12-20T15:16:28;9.52;;;3.40;;
21122;SDS011;10719;48.130;11.630;2022-12-20T15:18:58;8.35;;;3.05;;
21122;SDS011;10719;48.130;11.630;2022-12-20T15:23:58;7.95;;;3.22;;
21122;SDS011;10719;48.130;11.630;2022-12-20T15:26:26;6.88;;;2.95;;
21122;SDS011;10719;48.130;11.630;2022-12-20T15:28:52;7.95;;;3.45;;
21122;SDS011;10719;48.130;11.630;2022-12-20T15:31:19;12.90;;;3.35;;
21122;SDS011;10719;48.130;11.630;2022-12-20T15:33:48;7.22;;;3.63;;
21122;SDS011;10719;48.130;11.630;2022-12-20T15:36:22;9.55;;;3.72;;
21122;SDS011;10719;48.130;11.630;2022-12-20T15:38:50;5.95;;;2.40;;
21122;SDS011;10719;48.130;11.630;2022-12-20T15:41:23;7.43;;;3.05;;
21122;SDS011;10719;48.130;11.630;2022-12-20T15:43:55;3.33;;;1.70;;
21122;SDS011;10719;48.130;11.630;2022-12-20T15:46:24;6.65;;;2.85;;
21122;SDS011;10719;48.130;11.630;2022-12-20T15:48:50;9.02;;;2.80;;
21122;SDS011;10719;48.130;11.630;2022-12-20T15:51:17;6.95;;;2.55;;
21122;SDS011;10719;48.130;11.630;2022-12-20T15:53:44;11.50;;;3.67;;
21122;SDS011;10719;48.130;11.630;2022-12-20T15:56:13;7.13;;;2.70;;
21122;SDS011;10719;48.130;11.630;2022-12-20T15:58:42;4.75;;;2.10;;
21122;SDS011;10719;48.130;11.630;2022-12-20T16:01:08;5.93;;;2.50;;
21122;SDS011;10719;48.130;11.630;2022-12-20T16:03:38;7.53;;;2.95;;
21122;SDS011;10719;48.130;11.630;2022-12-20T16:06:04;5.38;;;2.22;;
21122;SDS011;10719;48.130;11.630;2022-12-20T16:08:30;5.32;;;2.35;;
21122;SDS011;10719;48.130;11.630;2022-12-20T16:10:55;5.40;;;2.75;;
21122;SDS011;10719;48.130;11.630;2022-12-20T16:13:23;8.05;;;3.28;;
21122;SDS011;10719;48.130;11.630;2022-12-20T16:15:51;5.15;;;2.40;;
21122;SDS011;10719;48.130;11.630;2022-12-20T16:18:16;10.63;;;4.10;;
21122;SDS011;10719;48.130;11.630;2022-12-20T16:20:42;6.07;;;2.67;;
21122;SDS011;10719;48.130;11.630;2022-12-20T16:23:13;11.30;;;3.03;;
21122;SDS011;10719;48.130;11.630;2022-12-20T16:25:44;6.45;;;2.65;;
21122;SDS011;10719;48.130;11.630;2022-12-20T16:28:10;10.05;;;4.38;;
21122;SDS011;10719;48.130;11.630;2022-12-20T16:30:36;7.53;;;2.58;;
21122;SDS011;10719;48.130;11.630;2022-12-20T16:33:01;6.70;;;2.78;;
21122;SDS011;10719;48.130;11.630;2022-12-20T16:37:55;8.32;;;2.63;;
21122;SDS011;10719;48.130;11.630;2022-12-20T16:40:26;16.38;;;3.78;;
21122;SDS011;10719;48.130;11.630;2022-12-20T16:42:54;4.10;;;2.13;;
21122;SDS011;10719;48.130;11.630;2022-12-20T16:45:22;5.95;;;2.95;;
21122;SDS011;10719;48.130;11.630;2022-12-20T16:47:52;8.85;;;3.50;;
21122;SDS011;10719;48.130;11.630;2022-12-20T16:50:19;7.35;;;3.17;;
21122;SDS011;10719;48.130;11.630;2022-12-20T16:52:46;4.03;;;2.38;;
21122;SDS011;10719;48.130;11.630;2022-12-20T16:55:17;8.07;;;3.22;;
21122;SDS011;10719;48.130;11.630;2022-12-20T16:57:47;8.93;;;2.95;;
21122;SDS011;10719;48.130;11.630;2022-12-20T17:00:20;5.75;;;2.53;;
21122;SDS011;10719;48.130;11.630;2022-12-20T17:02:49;7.88;;;3.13;;
21122;SDS011;10719;48.130;11.630;2022-12-20T17:05:23;7.28;;;3.45;;
21122;SDS011;10719;48.130;11.630;2022-12-20T17:07:51;6.43;;;2.88;;
21122;SDS011;10719;48.130;11.630;2022-12-20T17:10:17;7.07;;;3.08;;